sensor_id;sensor_type;location;lat;lon;timestamp;temperature;humidity
34574;DHT22;20809;49.594;8.734;2022-10-17T00:02:55;12.70;99.90
34574;DHT22;20809;49.594;8.734;2022-10-17T00:05:56;12.60;99.90
34574;DHT22;20809;49.594;8.734;2022-10-17T00:08:57;12.50;99.90
34574;DHT22;20809;49.594;8.734;2022-10-17T00:11:58;12.40;99.90
34574;DHT22;20809;49.594;8.734;2022-10-17T00:14:59;12.40;99.90
34574;DHT22;20809;49.594;8.734;2022-10-17T00:18:01;12.30;99.90
34574;DHT22;20809;49.594;8.734;2022-10-17T00:21:01;12.30;99.90
34574;DHT22;20809;49.594;8.734;2022-10-17T00:24:02;12.30;99.90
34574;DHT22;20809;49.594;8.734;2022-10-17T00:27:03;12.10;99.90
34574;DHT22;20809;49.594;8.734;2022-10-17T00:30:05;12.10;99.90
34574;DHT22;20809;49.594;8.734;2022-10-17T00:33:07;12.10;99.90
34574;DHT22;20809;49.594;8.734;2022-10-17T00:36:11;12.10;99.90
34574;DHT22;20809;49.594;8.734;2022-10-17T00:39:12;12.00;99.90
34574;DHT22;20809;49.594;8.734;2022-10-17T00:42:13;12.00;99.90
34574;DHT22;20809;49.594;8.734;2022-10-17T00:45:22;12.10;99.90
34574;DHT22;20809;49.594;8.734;2022-10-17T00:48:24;12.20;99.90
34574;DHT22;20809;49.594;8.734;2022-10-17T00:51:48;12.30;99.90
34574;DHT22;20809;49.594;8.734;2022-10-17T00:54:56;12.30;99.90
34574;DHT22;20809;49.594;8.734;2022-10-17T00:59:10;12.30;99.90
34574;DHT22;20809;49.594;8.734;2022-10-17T01:02:14;12.30;99.90
34574;DHT22;20809;49.594;8.734;2022-10-17T01:05:16;12.10;99.90
34574;DHT22;20809;49.594;8.734;2022-10-17T01:08:18;12.00;99.90
34574;DHT22;20809;49.594;8.734;2022-10-17T01:11:38;11.90;99.90
34574;DHT22;20809;49.594;8.734;2022-10-17T01:15:47;11.80;99.90
34574;DHT22;20809;49.594;8.734;2022-10-17T01:32:34;11.70;99.90
34574;DHT22;20809;49.594;8.734;2022-10-17T01:38:48;11.60;99.90
34574;DHT22;20809;49.594;8.734;2022-10-17T01:41:57;11.60;99.90
34574;DHT22;20809;49.594;8.734;2022-10-17T01:45:18;11.60;99.90
34574;DHT22;20809;49.594;8.734;2022-10-17T01:48:27;11.60;99.90
34574;DHT22;20809;49.594;8.734;2022-10-17T01:51:54;11.60;99.90
34574;DHT22;20809;49.594;8.734;2022-10-17T01:55:05;11.50;99.90
34574;DHT22;20809;49.594;8.734;2022-10-17T01:58:30;11.50;99.90
34574;DHT22;20809;49.594;8.734;2022-10-17T02:01:33;11.50;99.90
34574;DHT22;20809;49.594;8.734;2022-10-17T02:04:37;11.50;99.90
34574;DHT22;20809;49.594;8.734;2022-10-17T02:07:40;11.50;99.90
34574;DHT22;20809;49.594;8.734;2022-10-17T02:10:54;11.50;99.90
34574;DHT22;20809;49.594;8.734;2022-10-17T02:21:02;11.60;99.90
34574;DHT22;20809;49.594;8.734;2022-10-17T02:27:24;11.60;99.90
34574;DHT22;20809;49.594;8.734;2022-10-17T02:30:39;11.60;99.90
34574;DHT22;20809;49.594;8.734;2022-10-17T02:33:55;11.50;99.90
34574;DHT22;20809;49.594;8.734;2022-10-17T02:37:00;11.30;99.90
34574;DHT22;20809;49.594;8.734;2022-10-17T02:40:02;11.30;99.90
34574;DHT22;20809;49.594;8.734;2022-10-17T02:43:04;11.20;99.90
34574;DHT22;20809;49.594;8.734;2022-10-17T02:46:05;11.20;99.90
34574;DHT22;20809;49.594;8.734;2022-10-17T02:49:21;11.20;99.90
34574;DHT22;20809;49.594;8.734;2022-10-17T02:55:47;11.20;99.90
34574;DHT22;20809;49.594;8.734;2022-10-17T02:58:53;11.10;99.90
34574;DHT22;20809;49.594;8.734;2022-10-17T03:01:55;11.00;99.90
34574;DHT22;20809;49.594;8.734;2022-10-17T03:04:56;11.00;99.90
34574;DHT22;20809;49.594;8.734;2022-10-17T03:07:56;11.00;99.90
34574;DHT22;20809;49.594;8.734;2022-10-17T03:10:57;11.00;99.90
34574;DHT22;20809;49.594;8.734;2022-10-17T03:13:58;11.00;99.90
34574;DHT22;20809;49.594;8.734;2022-10-17T03:16:58;11.00;99.90
34574;DHT22;20809;49.594;8.734;2022-10-17T03:19:59;11.00;99.90
34574;DHT22;20809;49.594;8.734;2022-10-17T03:23:00;11.10;99.90
34574;DHT22;20809;49.594;8.734;2022-10-17T03:26:05;11.20;99.90
34574;DHT22;20809;49.594;8.734;2022-10-17T03:29:05;11.20;99.90
34574;DHT22;20809;49.594;8.734;2022-10-17T03:32:06;11.20;99.90
34574;DHT22;20809;49.594;8.734;2022-10-17T03:35:07;11.20;99.90
34574;DHT22;20809;49.594;8.734;2022-10-17T03:38:09;11.30;99.90
34574;DHT22;20809;49.594;8.734;2022-10-17T03:41:10;11.20;99.90
34574;DHT22;20809;49.594;8.734;2022-10-17T03:44:11;11.10;99.90
34574;DHT22;20809;49.594;8.734;2022-10-17T03:47:12;11.00;99.90
34574;DHT22;20809;49.594;8.734;2022-10-17T03:50:12;10.90;99.90
34574;DHT22;20809;49.594;8.734;2022-10-17T03:53:13;10.80;99.90
34574;DHT22;20809;49.594;8.734;2022-10-17T03:56:17;10.70;99.90
34574;DHT22;20809;49.594;8.734;2022-10-17T03:59:18;10.60;99.90
34574;DHT22;20809;49.594;8.734;2022-10-17T04:02:19;10.50;99.90
34574;DHT22;20809;49.594;8.734;2022-10-17T04:05:20;10.50;99.90
34574;DHT22;20809;49.594;8.734;2022-10-17T04:08:20;10.60;99.90
34574;DHT22;20809;49.594;8.734;2022-10-17T04:11:21;10.50;99.90
34574;DHT22;20809;49.594;8.734;2022-10-17T04:14:22;10.60;99.90
34574;DHT22;20809;49.594;8.734;2022-10-17T04:17:23;10.50;99.90
34574;DHT22;20809;49.594;8.734;2022-10-17T04:20:23;10.70;99.90
34574;DHT22;20809;49.594;8.734;2022-10-17T04:23:24;10.90;99.90
34574;DHT22;20809;49.594;8.734;2022-10-17T04:26:26;11.00;99.90
34574;DHT22;20809;49.594;8.734;2022-10-17T04:29:26;11.00;99.90
34574;DHT22;20809;49.594;8.734;2022-10-17T04:32:27;10.90;99.90
34574;DHT22;20809;49.594;8.734;2022-10-17T04:35:28;10.90;99.90
34574;DHT22;20809;49.594;8.734;2022-10-17T04:38:28;10.80;99.90
34574;DHT22;20809;49.594;8.734;2022-10-17T04:41:29;10.70;99.90
34574;DHT22;20809;49.594;8.734;2022-10-17T04:44:30;10.70;99.90
34574;DHT22;20809;49.594;8.734;2022-10-17T04:47:32;10.60;99.90
34574;DHT22;20809;49.594;8.734;2022-10-17T04:50:33;10.50;99.90
34574;DHT22;20809;49.594;8.734;2022-10-17T04:53:36;10.50;99.90
34574;DHT22;20809;49.594;8.734;2022-10-17T04:56:37;10.50;99.90
34574;DHT22;20809;49.594;8.734;2022-10-17T04:59:37;10.40;99.90
34574;DHT22;20809;49.594;8.734;2022-10-17T05:02:38;10.30;99.90
34574;DHT22;20809;49.594;8.734;2022-10-17T05:05:40;10.30;99.90
34574;DHT22;20809;49.594;8.734;2022-10-17T05:08:41;10.30;99.90
34574;DHT22;20809;49.594;8.734;2022-10-17T05:11:42;10.20;99.90
34574;DHT22;20809;49.594;8.734;2022-10-17T05:14:43;10.20;99.90
34574;DHT22;20809;49.594;8.734;2022-10-17T05:17:43;10.20;99.90
34574;DHT22;20809;49.594;8.734;2022-10-17T05:20:44;10.10;99.90
34574;DHT22;20809;49.594;8.734;2022-10-17T05:23:45;10.20;99.90
34574;DHT22;20809;49.594;8.734;2022-10-17T05:26:45;10.20;99.90
34574;DHT22;20809;49.594;8.734;2022-10-17T05:29:49;10.20;99.90
34574;DHT22;20809;49.594;8.734;2022-10-17T05:32:53;10.20;99.90
34574;DHT22;20809;49.594;8.734;2022-10-17T05:35:54;10.20;99.90
34574;DHT22;20809;49.594;8.734;2022-10-17T05:38:55;10.30;99.90
34574;DHT22;20809;49.594;8.734;2022-10-17T05:41:55;10.30;99.90
34574;DHT22;20809;49.594;8.734;2022-10-17T05:44:56;10.30;99.90
34574;DHT22;20809;49.594;8.734;2022-10-17T05:47:57;10.30;99.90
34574;DHT22;20809;49.594;8.734;2022-10-17T05:51:02;10.30;99.90
34574;DHT22;20809;49.594;8.734;2022-10-17T05:54:04;10.30;99.90
34574;DHT22;20809;49.594;8.734;2022-10-17T05:57:06;10.30;99.90
34574;DHT22;20809;49.594;8.734;2022-10-17T06:00:07;10.20;99.90
34574;DHT22;20809;49.594;8.734;2022-10-17T06:03:11;10.20;99.90
34574;DHT22;20809;49.594;8.734;2022-10-17T06:06:13;10.30;99.90
34574;DHT22;20809;49.594;8.734;2022-10-17T06:09:14;10.20;99.90
34574;DHT22;20809;49.594;8.734;2022-10-17T06:12:15;10.20;99.90
34574;DHT22;20809;49.594;8.734;2022-10-17T06:15:15;10.20;99.90
34574;DHT22;20809;49.594;8.734;2022-10-17T06:18:16;10.20;99.90
34574;DHT22;20809;49.594;8.734;2022-10-17T06:21:23;10.20;99.90
34574;DHT22;20809;49.594;8.734;2022-10-17T06:24:24;10.20;99.90
34574;DHT22;20809;49.594;8.734;2022-10-17T06:27:24;10.30;99.90
34574;DHT22;20809;49.594;8.734;2022-10-17T06:30:25;10.30;99.90
34574;DHT22;20809;49.594;8.734;2022-10-17T06:33:26;10.40;99.90
34574;DHT22;20809;49.594;8.734;2022-10-17T06:36:27;10.50;99.90
34574;DHT22;20809;49.594;8.734;2022-10-17T06:39:27;10.50;99.90
34574;DHT22;20809;49.594;8.734;2022-10-17T06:42:33;10.70;99.90
34574;DHT22;20809;49.594;8.734;2022-10-17T06:45:33;10.70;99.90
34574;DHT22;20809;49.594;8.734;2022-10-17T06:48:34;10.90;99.90
34574;DHT22;20809;49.594;8.734;2022-10-17T06:51:35;11.00;99.90
34574;DHT22;20809;49.594;8.734;2022-10-17T06:54:36;11.30;99.90
34574;DHT22;20809;49.594;8.734;2022-10-17T06:57:37;11.70;99.90
34574;DHT22;20809;49.594;8.734;2022-10-17T07:00:37;11.90;99.90
34574;DHT22;20809;49.594;8.734;2022-10-17T07:03:39;12.00;99.90
34574;DHT22;20809;49.594;8.734;2022-10-17T07:06:40;12.00;99.90
34574;DHT22;20809;49.594;8.734;2022-10-17T07:09:41;12.00;99.90
34574;DHT22;20809;49.594;8.734;2022-10-17T07:12:41;11.90;99.90
34574;DHT22;20809;49.594;8.734;2022-10-17T07:15:44;11.90;99.90
34574;DHT22;20809;49.594;8.734;2022-10-17T07:18:48;11.90;99.90
34574;DHT22;20809;49.594;8.734;2022-10-17T07:21:49;12.00;99.90
34574;DHT22;20809;49.594;8.734;2022-10-17T07:24:50;12.10;99.90
34574;DHT22;20809;49.594;8.734;2022-10-17T07:27:51;12.10;99.90
34574;DHT22;20809;49.594;8.734;2022-10-17T07:30:52;12.20;99.90
34574;DHT22;20809;49.594;8.734;2022-10-17T07:33:53;12.30;99.90
34574;DHT22;20809;49.594;8.734;2022-10-17T07:36:53;12.40;99.90
34574;DHT22;20809;49.594;8.734;2022-10-17T07:39:54;12.50;99.90
34574;DHT22;20809;49.594;8.734;2022-10-17T07:42:55;12.60;99.90
34574;DHT22;20809;49.594;8.734;2022-10-17T07:45:57;12.80;99.90
34574;DHT22;20809;49.594;8.734;2022-10-17T07:48:57;12.90;99.90
34574;DHT22;20809;49.594;8.734;2022-10-17T07:51:58;13.10;99.90
34574;DHT22;20809;49.594;8.734;2022-10-17T07:54:59;13.20;99.90
34574;DHT22;20809;49.594;8.734;2022-10-17T07:57:59;13.40;99.90
34574;DHT22;20809;49.594;8.734;2022-10-17T08:01:01;13.60;99.90
34574;DHT22;20809;49.594;8.734;2022-10-17T08:04:02;13.70;99.90
34574;DHT22;20809;49.594;8.734;2022-10-17T08:07:03;13.80;99.90
34574;DHT22;20809;49.594;8.734;2022-10-17T08:10:04;14.10;99.90
34574;DHT22;20809;49.594;8.734;2022-10-17T08:13:05;14.40;99.90
34574;DHT22;20809;49.594;8.734;2022-10-17T08:16:08;14.60;99.90
34574;DHT22;20809;49.594;8.734;2022-10-17T08:19:09;14.90;99.90
34574;DHT22;20809;49.594;8.734;2022-10-17T08:22:10;15.20;99.90
34574;DHT22;20809;49.594;8.734;2022-10-17T08:25:11;15.40;99.90
34574;DHT22;20809;49.594;8.734;2022-10-17T08:28:12;15.70;99.90
34574;DHT22;20809;49.594;8.734;2022-10-17T08:31:14;15.90;99.90
34574;DHT22;20809;49.594;8.734;2022-10-17T08:34:17;16.10;99.90
34574;DHT22;20809;49.594;8.734;2022-10-17T08:37:18;16.30;99.90
34574;DHT22;20809;49.594;8.734;2022-10-17T08:40:25;16.50;99.90
34574;DHT22;20809;49.594;8.734;2022-10-17T08:46:45;17.00;99.90
34574;DHT22;20809;49.594;8.734;2022-10-17T08:49:59;17.40;99.90
34574;DHT22;20809;49.594;8.734;2022-10-17T08:56:22;17.90;99.90
34574;DHT22;20809;49.594;8.734;2022-10-17T08:59:28;18.10;99.90
34574;DHT22;20809;49.594;8.734;2022-10-17T09:05:49;18.50;99.90
34574;DHT22;20809;49.594;8.734;2022-10-17T09:08:55;18.60;99.90
34574;DHT22;20809;49.594;8.734;2022-10-17T09:18:43;19.20;99.90
34574;DHT22;20809;49.594;8.734;2022-10-17T09:21:59;19.40;99.90
34574;DHT22;20809;49.594;8.734;2022-10-17T09:25:05;19.60;99.90
34574;DHT22;20809;49.594;8.734;2022-10-17T09:31:18;20.00;99.90
34574;DHT22;20809;49.594;8.734;2022-10-17T09:34:20;20.10;99.90
34574;DHT22;20809;49.594;8.734;2022-10-17T09:37:30;20.20;99.90
34574;DHT22;20809;49.594;8.734;2022-10-17T09:40:33;20.30;99.90
34574;DHT22;20809;49.594;8.734;2022-10-17T09:43:34;20.40;99.90
34574;DHT22;20809;49.594;8.734;2022-10-17T09:46:37;20.50;99.90
34574;DHT22;20809;49.594;8.734;2022-10-17T09:49:40;20.60;99.90
34574;DHT22;20809;49.594;8.734;2022-10-17T09:52:42;20.70;99.90
34574;DHT22;20809;49.594;8.734;2022-10-17T09:55:54;20.60;99.90
34574;DHT22;20809;49.594;8.734;2022-10-17T09:58:57;20.60;99.90
34574;DHT22;20809;49.594;8.734;2022-10-17T10:02:15;20.60;99.90
34574;DHT22;20809;49.594;8.734;2022-10-17T10:05:18;20.80;99.90
34574;DHT22;20809;49.594;8.734;2022-10-17T10:08:20;21.00;99.90
34574;DHT22;20809;49.594;8.734;2022-10-17T10:11:25;21.10;99.90
34574;DHT22;20809;49.594;8.734;2022-10-17T10:14:34;21.30;99.90
34574;DHT22;20809;49.594;8.734;2022-10-17T10:17:40;21.40;99.90
34574;DHT22;20809;49.594;8.734;2022-10-17T10:20:43;21.40;99.90
34574;DHT22;20809;49.594;8.734;2022-10-17T10:27:02;21.60;99.90
34574;DHT22;20809;49.594;8.734;2022-10-17T10:30:04;21.80;99.90
34574;DHT22;20809;49.594;8.734;2022-10-17T10:33:05;21.90;99.90
34574;DHT22;20809;49.594;8.734;2022-10-17T10:36:06;22.10;99.90
34574;DHT22;20809;49.594;8.734;2022-10-17T10:39:17;22.20;99.90
34574;DHT22;20809;49.594;8.734;2022-10-17T10:42:34;22.30;99.90
34574;DHT22;20809;49.594;8.734;2022-10-17T10:48:36;22.50;99.90
34574;DHT22;20809;49.594;8.734;2022-10-17T10:54:45;22.50;99.90
34574;DHT22;20809;49.594;8.734;2022-10-17T10:57:51;22.50;99.90
34574;DHT22;20809;49.594;8.734;2022-10-17T11:00:54;22.50;99.90
34574;DHT22;20809;49.594;8.734;2022-10-17T11:04:06;22.50;99.90
34574;DHT22;20809;49.594;8.734;2022-10-17T11:07:32;22.60;99.90
34574;DHT22;20809;49.594;8.734;2022-10-17T11:11:03;22.70;99.90
34574;DHT22;20809;49.594;8.734;2022-10-17T11:15:15;22.70;99.90
34574;DHT22;20809;49.594;8.734;2022-10-17T11:20:54;22.70;99.90
34574;DHT22;20809;49.594;8.734;2022-10-17T11:24:21;22.60;99.90
34574;DHT22;20809;49.594;8.734;2022-10-17T11:27:24;22.50;99.90
34574;DHT22;20809;49.594;8.734;2022-10-17T11:30:29;22.50;99.90
34574;DHT22;20809;49.594;8.734;2022-10-17T11:33:43;22.60;99.90
34574;DHT22;20809;49.594;8.734;2022-10-17T11:36:47;22.80;99.90
34574;DHT22;20809;49.594;8.734;2022-10-17T11:40:03;22.80;99.90
34574;DHT22;20809;49.594;8.734;2022-10-17T11:46:14;22.70;99.90
34574;DHT22;20809;49.594;8.734;2022-10-17T11:49:21;22.60;99.90
34574;DHT22;20809;49.594;8.734;2022-10-17T11:52:29;22.60;99.90
34574;DHT22;20809;49.594;8.734;2022-10-17T11:55:33;22.60;99.90
34574;DHT22;20809;49.594;8.734;2022-10-17T11:59:26;22.60;99.90
34574;DHT22;20809;49.594;8.734;2022-10-17T12:09:31;22.70;99.90
34574;DHT22;20809;49.594;8.734;2022-10-17T12:12:34;22.80;99.90
34574;DHT22;20809;49.594;8.734;2022-10-17T12:15:36;22.80;99.90
34574;DHT22;20809;49.594;8.734;2022-10-17T12:18:37;23.00;99.90
34574;DHT22;20809;49.594;8.734;2022-10-17T12:21:58;23.00;99.90
34574;DHT22;20809;49.594;8.734;2022-10-17T12:25:01;23.00;99.90
34574;DHT22;20809;49.594;8.734;2022-10-17T12:34:16;23.00;99.90
34574;DHT22;20809;49.594;8.734;2022-10-17T12:38:01;23.00;99.90
34574;DHT22;20809;49.594;8.734;2022-10-17T12:41:04;23.10;99.90
34574;DHT22;20809;49.594;8.734;2022-10-17T12:54:13;23.20;99.90
34574;DHT22;20809;49.594;8.734;2022-10-17T12:57:21;23.20;99.90
34574;DHT22;20809;49.594;8.734;2022-10-17T13:00:43;23.30;99.90
34574;DHT22;20809;49.594;8.734;2022-10-17T13:03:47;23.40;99.90
34574;DHT22;20809;49.594;8.734;2022-10-17T13:06:55;23.40;99.90
34574;DHT22;20809;49.594;8.734;2022-10-17T13:09:56;23.40;99.90
34574;DHT22;20809;49.594;8.734;2022-10-17T13:16:06;23.40;99.90
34574;DHT22;20809;49.594;8.734;2022-10-17T13:19:15;23.40;99.90
34574;DHT22;20809;49.594;8.734;2022-10-17T13:22:25;23.40;99.90
34574;DHT22;20809;49.594;8.734;2022-10-17T13:28:35;23.70;99.90
34574;DHT22;20809;49.594;8.734;2022-10-17T13:31:43;23.90;99.90
34574;DHT22;20809;49.594;8.734;2022-10-17T13:34:43;23.90;99.90
34574;DHT22;20809;49.594;8.734;2022-10-17T13:37:45;24.00;99.90
34574;DHT22;20809;49.594;8.734;2022-10-17T13:40:46;23.90;99.90
34574;DHT22;20809;49.594;8.734;2022-10-17T13:43:48;23.90;99.90
34574;DHT22;20809;49.594;8.734;2022-10-17T13:46:52;24.00;99.90
34574;DHT22;20809;49.594;8.734;2022-10-17T13:49:57;24.00;99.90
34574;DHT22;20809;49.594;8.734;2022-10-17T13:53:24;24.00;99.90
34574;DHT22;20809;49.594;8.734;2022-10-17T13:56:26;24.10;99.90
34574;DHT22;20809;49.594;8.734;2022-10-17T13:59:37;24.10;99.90
34574;DHT22;20809;49.594;8.734;2022-10-17T14:02:44;24.20;99.90
34574;DHT22;20809;49.594;8.734;2022-10-17T14:09:29;24.20;99.90
34574;DHT22;20809;49.594;8.734;2022-10-17T14:12:30;24.10;99.90
34574;DHT22;20809;49.594;8.734;2022-10-17T14:15:34;24.00;99.90
34574;DHT22;20809;49.594;8.734;2022-10-17T14:18:36;24.00;99.90
34574;DHT22;20809;49.594;8.734;2022-10-17T14:21:37;23.90;99.90
34574;DHT22;20809;49.594;8.734;2022-10-17T14:24:38;24.00;99.90
34574;DHT22;20809;49.594;8.734;2022-10-17T14:27:55;24.00;99.90
34574;DHT22;20809;49.594;8.734;2022-10-17T14:31:11;23.90;99.90
34574;DHT22;20809;49.594;8.734;2022-10-17T14:34:25;23.90;99.90
34574;DHT22;20809;49.594;8.734;2022-10-17T14:37:44;23.80;99.90
34574;DHT22;20809;49.594;8.734;2022-10-17T14:40:56;23.90;99.90
34574;DHT22;20809;49.594;8.734;2022-10-17T14:44:06;23.80;99.90
34574;DHT22;20809;49.594;8.734;2022-10-17T14:47:17;23.70;99.90
34574;DHT22;20809;49.594;8.734;2022-10-17T14:50:28;23.50;99.90
34574;DHT22;20809;49.594;8.734;2022-10-17T14:53:29;23.40;99.90
34574;DHT22;20809;49.594;8.734;2022-10-17T14:59:35;23.20;99.90
34574;DHT22;20809;49.594;8.734;2022-10-17T15:02:35;23.00;99.90
34574;DHT22;20809;49.594;8.734;2022-10-17T15:05:36;22.90;99.90
34574;DHT22;20809;49.594;8.734;2022-10-17T15:08:37;22.80;99.90
34574;DHT22;20809;49.594;8.734;2022-10-17T15:11:38;22.80;99.90
34574;DHT22;20809;49.594;8.734;2022-10-17T15:14:38;22.80;99.90
34574;DHT22;20809;49.594;8.734;2022-10-17T15:17:39;22.80;99.90
34574;DHT22;20809;49.594;8.734;2022-10-17T15:20:41;22.80;99.90
34574;DHT22;20809;49.594;8.734;2022-10-17T15:23:42;22.70;99.90
34574;DHT22;20809;49.594;8.734;2022-10-17T15:26:42;22.50;99.90
34574;DHT22;20809;49.594;8.734;2022-10-17T15:29:44;22.40;99.90
34574;DHT22;20809;49.594;8.734;2022-10-17T15:32:45;22.20;99.90
34574;DHT22;20809;49.594;8.734;2022-10-17T15:35:46;22.00;99.90
34574;DHT22;20809;49.594;8.734;2022-10-17T15:38:47;21.80;99.90
34574;DHT22;20809;49.594;8.734;2022-10-17T15:41:48;21.70;99.90
34574;DHT22;20809;49.594;8.734;2022-10-17T15:44:49;21.70;99.90
34574;DHT22;20809;49.594;8.734;2022-10-17T15:48:01;21.70;99.90
34574;DHT22;20809;49.594;8.734;2022-10-17T15:51:03;21.70;99.90
34574;DHT22;20809;49.594;8.734;2022-10-17T15:54:04;21.70;99.90
34574;DHT22;20809;49.594;8.734;2022-10-17T15:57:05;21.80;99.90
34574;DHT22;20809;49.594;8.734;2022-10-17T16:00:21;21.70;99.90
34574;DHT22;20809;49.594;8.734;2022-10-17T16:03:22;21.70;99.90
34574;DHT22;20809;49.594;8.734;2022-10-17T16:06:23;21.70;99.90
34574;DHT22;20809;49.594;8.734;2022-10-17T16:09:24;21.60;99.90
34574;DHT22;20809;49.594;8.734;2022-10-17T16:12:27;21.40;99.90
34574;DHT22;20809;49.594;8.734;2022-10-17T16:15:28;21.20;99.90
34574;DHT22;20809;49.594;8.734;2022-10-17T16:18:29;20.90;99.90
34574;DHT22;20809;49.594;8.734;2022-10-17T16:21:33;20.70;99.90
34574;DHT22;20809;49.594;8.734;2022-10-17T16:24:34;20.40;99.90
34574;DHT22;20809;49.594;8.734;2022-10-17T16:27:36;20.10;99.90
34574;DHT22;20809;49.594;8.734;2022-10-17T16:30:40;19.90;99.90
34574;DHT22;20809;49.594;8.734;2022-10-17T16:33:42;19.70;99.90
34574;DHT22;20809;49.594;8.734;2022-10-17T16:36:42;19.60;99.90
34574;DHT22;20809;49.594;8.734;2022-10-17T16:39:43;19.30;99.90
34574;DHT22;20809;49.594;8.734;2022-10-17T16:42:48;19.20;99.90
34574;DHT22;20809;49.594;8.734;2022-10-17T16:45:49;19.00;99.90
34574;DHT22;20809;49.594;8.734;2022-10-17T16:48:50;18.80;99.90
34574;DHT22;20809;49.594;8.734;2022-10-17T16:51:50;18.70;99.90
34574;DHT22;20809;49.594;8.734;2022-10-17T16:54:51;18.60;99.90
34574;DHT22;20809;49.594;8.734;2022-10-17T16:57:52;18.50;99.90
34574;DHT22;20809;49.594;8.734;2022-10-17T17:00:53;18.50;99.90
34574;DHT22;20809;49.594;8.734;2022-10-17T17:03:54;18.40;99.90
34574;DHT22;20809;49.594;8.734;2022-10-17T17:06:55;18.30;99.90
34574;DHT22;20809;49.594;8.734;2022-10-17T17:09:55;18.20;99.90
34574;DHT22;20809;49.594;8.734;2022-10-17T17:12:56;18.10;99.90
34574;DHT22;20809;49.594;8.734;2022-10-17T17:19:13;17.80;99.90
34574;DHT22;20809;49.594;8.734;2022-10-17T17:22:16;17.70;99.90
34574;DHT22;20809;49.594;8.734;2022-10-17T17:25:16;17.60;99.90
34574;DHT22;20809;49.594;8.734;2022-10-17T17:28:17;17.60;99.90
34574;DHT22;20809;49.594;8.734;2022-10-17T17:31:20;17.50;99.90
34574;DHT22;20809;49.594;8.734;2022-10-17T17:34:21;17.50;99.90
34574;DHT22;20809;49.594;8.734;2022-10-17T17:37:22;17.50;99.90
34574;DHT22;20809;49.594;8.734;2022-10-17T17:40:23;17.40;99.90
34574;DHT22;20809;49.594;8.734;2022-10-17T17:43:23;17.30;99.90
34574;DHT22;20809;49.594;8.734;2022-10-17T17:46:24;17.20;99.90
34574;DHT22;20809;49.594;8.734;2022-10-17T17:49:25;17.20;99.90
34574;DHT22;20809;49.594;8.734;2022-10-17T17:52:26;17.20;99.90
34574;DHT22;20809;49.594;8.734;2022-10-17T17:55:26;17.10;99.90
34574;DHT22;20809;49.594;8.734;2022-10-17T17:58:27;17.10;99.90
34574;DHT22;20809;49.594;8.734;2022-10-17T18:01:31;16.90;99.90
34574;DHT22;20809;49.594;8.734;2022-10-17T18:04:35;16.90;99.90
34574;DHT22;20809;49.594;8.734;2022-10-17T18:07:36;16.80;99.90
34574;DHT22;20809;49.594;8.734;2022-10-17T18:10:37;16.70;99.90
34574;DHT22;20809;49.594;8.734;2022-10-17T18:13:38;16.60;99.90
34574;DHT22;20809;49.594;8.734;2022-10-17T18:16:38;16.60;99.90
34574;DHT22;20809;49.594;8.734;2022-10-17T18:19:39;16.60;99.90
34574;DHT22;20809;49.594;8.734;2022-10-17T18:22:40;16.60;99.90
34574;DHT22;20809;49.594;8.734;2022-10-17T18:25:40;16.60;99.90
34574;DHT22;20809;49.594;8.734;2022-10-17T18:28:42;16.40;99.90
34574;DHT22;20809;49.594;8.734;2022-10-17T18:31:43;16.40;99.90
34574;DHT22;20809;49.594;8.734;2022-10-17T18:34:43;16.40;99.90
34574;DHT22;20809;49.594;8.734;2022-10-17T18:37:44;16.30;99.90
34574;DHT22;20809;49.594;8.734;2022-10-17T18:40:45;16.30;99.90
34574;DHT22;20809;49.594;8.734;2022-10-17T18:43:47;16.20;99.90
34574;DHT22;20809;49.594;8.734;2022-10-17T18:46:48;16.20;99.90
34574;DHT22;20809;49.594;8.734;2022-10-17T18:49:49;16.30;99.90
34574;DHT22;20809;49.594;8.734;2022-10-17T18:52:50;16.20;99.90
34574;DHT22;20809;49.594;8.734;2022-10-17T18:55:51;16.30;99.90
34574;DHT22;20809;49.594;8.734;2022-10-17T18:58:52;16.20;99.90
34574;DHT22;20809;49.594;8.734;2022-10-17T19:01:53;16.30;99.90
34574;DHT22;20809;49.594;8.734;2022-10-17T19:04:54;16.20;99.90
34574;DHT22;20809;49.594;8.734;2022-10-17T19:07:54;16.20;99.90
34574;DHT22;20809;49.594;8.734;2022-10-17T19:10:55;16.20;99.90
34574;DHT22;20809;49.594;8.734;2022-10-17T19:13:57;16.20;99.90
34574;DHT22;20809;49.594;8.734;2022-10-17T19:16:58;16.20;99.90
34574;DHT22;20809;49.594;8.734;2022-10-17T19:19:59;16.20;99.90
34574;DHT22;20809;49.594;8.734;2022-10-17T19:23:00;16.20;99.90
34574;DHT22;20809;49.594;8.734;2022-10-17T19:26:07;16.20;99.90
34574;DHT22;20809;49.594;8.734;2022-10-17T19:29:12;16.20;99.90
34574;DHT22;20809;49.594;8.734;2022-10-17T19:32:13;16.30;99.90
34574;DHT22;20809;49.594;8.734;2022-10-17T19:35:14;16.10;99.90
34574;DHT22;20809;49.594;8.734;2022-10-17T19:38:14;15.90;99.90
34574;DHT22;20809;49.594;8.734;2022-10-17T19:41:15;15.90;99.90
34574;DHT22;20809;49.594;8.734;2022-10-17T19:44:16;15.90;99.90
34574;DHT22;20809;49.594;8.734;2022-10-17T19:47:17;15.90;99.90
34574;DHT22;20809;49.594;8.734;2022-10-17T19:50:17;16.00;99.90
34574;DHT22;20809;49.594;8.734;2022-10-17T19:53:19;15.90;99.90
34574;DHT22;20809;49.594;8.734;2022-10-17T19:56:22;15.80;99.90
34574;DHT22;20809;49.594;8.734;2022-10-17T19:59:23;15.90;99.90
34574;DHT22;20809;49.594;8.734;2022-10-17T20:02:25;15.90;99.90
34574;DHT22;20809;49.594;8.734;2022-10-17T20:05:26;15.90;99.90
34574;DHT22;20809;49.594;8.734;2022-10-17T20:08:26;15.80;99.90
34574;DHT22;20809;49.594;8.734;2022-10-17T20:11:28;15.80;99.90
34574;DHT22;20809;49.594;8.734;2022-10-17T20:14:28;15.80;99.90
34574;DHT22;20809;49.594;8.734;2022-10-17T20:17:29;15.80;99.90
34574;DHT22;20809;49.594;8.734;2022-10-17T20:20:30;15.70;99.90
34574;DHT22;20809;49.594;8.734;2022-10-17T20:23:31;15.60;99.90
34574;DHT22;20809;49.594;8.734;2022-10-17T20:26:33;15.70;99.90
34574;DHT22;20809;49.594;8.734;2022-10-17T20:29:33;15.70;99.90
34574;DHT22;20809;49.594;8.734;2022-10-17T20:32:34;15.60;99.90
34574;DHT22;20809;49.594;8.734;2022-10-17T20:35:42;15.60;99.90
34574;DHT22;20809;49.594;8.734;2022-10-17T20:38:43;15.60;99.90
34574;DHT22;20809;49.594;8.734;2022-10-17T20:41:44;15.60;99.90
34574;DHT22;20809;49.594;8.734;2022-10-17T20:44:45;15.60;99.90
34574;DHT22;20809;49.594;8.734;2022-10-17T20:47:49;15.60;99.90
34574;DHT22;20809;49.594;8.734;2022-10-17T20:50:50;15.60;99.90
34574;DHT22;20809;49.594;8.734;2022-10-17T20:53:51;15.60;99.90
34574;DHT22;20809;49.594;8.734;2022-10-17T20:56:51;15.60;99.90
34574;DHT22;20809;49.594;8.734;2022-10-17T20:59:52;15.60;99.90
34574;DHT22;20809;49.594;8.734;2022-10-17T21:02:53;15.60;99.90
34574;DHT22;20809;49.594;8.734;2022-10-17T21:05:53;15.50;99.90
34574;DHT22;20809;49.594;8.734;2022-10-17T21:08:55;15.50;99.90